Time,TemperatureF,DewpointF,PressureIn,WindDirection,WindDirectionDegrees,WindSpeedMPH,WindSpeedGustMPH,Humidity,HourlyPrecipIn,Conditions,Clouds,dailyrainin,SoftwareType,DateUTC
2013-06-29 00:58:00,68.8,68.8,29.75,West,269,0.5,1.7,100,0.27,,,0.00,Meteorologica,2013-06-29 04:58:00,
2013-06-29 01:00:00,73.3,62.5,29.74,SW,227,0.0,3.0,68,0.00,,,0.01,Meteorologica,2013-06-29 05:00:00,
2013-06-29 01:01:00,73.5,63.1,29.74,SW,227,0.0,3.0,69,0.00,,,0.01,Meteorologica,2013-06-29 05:01:00,
2013-06-29 01:02:00,73.4,63.1,29.74,SW,227,0.0,3.0,69,0.00,,,0.01,Meteorologica,2013-06-29 05:02:00,
2013-06-29 01:03:00,68.9,68.9,29.75,West,269,0.0,0.0,100,0.27,,,0.00,Meteorologica,2013-06-29 05:03:00,
2013-06-29 01:04:00,73.4,63.4,29.75,SW,227,0.0,3.0,70,0.00,,,0.01,Meteorologica,2013-06-29 05:04:00,
2013-06-29 01:05:00,73.5,63.3,29.75,SW,227,0.0,0.0,69,0.00,,,0.01,Meteorologica,2013-06-29 05:05:00,
2013-06-29 01:06:00,73.5,63.3,29.75,SW,227,0.0,0.0,69,0.00,,,0.01,Meteorologica,2013-06-29 05:06:00,
2013-06-29 01:07:00,73.5,63.2,29.75,WSW,250,0.2,0.0,69,0.00,,,0.01,Meteorologica,2013-06-29 05:07:00,
2013-06-29 01:08:00,68.9,68.9,29.75,West,269,0.0,0.0,100,0.27,,,0.00,Meteorologica,2013-06-29 05:08:00,
2013-06-29 01:09:00,73.5,63.0,29.75,WSW,243,0.3,0.0,69,0.00,,,0.01,Meteorologica,2013-06-29 05:09:00,
2013-06-29 01:10:00,73.4,62.8,29.75,SSW,197,0.8,2.4,68,0.00,,,0.01,Meteorologica,2013-06-29 05:10:00,
2013-06-29 01:11:00,73.5,62.9,29.75,SSW,197,0.0,2.4,69,0.00,,,0.01,Meteorologica,2013-06-29 05:11:00,
2013-06-29 01:12:00,73.6,63.2,29.75,SSW,197,0.0,2.4,69,0.00,,,0.01,Meteorologica,2013-06-29 05:12:00,
2013-06-29 01:13:00,68.9,68.9,29.73,West,269,0.0,0.0,100,0.27,,,0.00,Meteorologica,2013-06-29 05:13:00,
2013-06-29 01:14:00,73.7,63.3,29.75,SSW,197,0.0,2.4,69,0.00,,,0.01,Meteorologica,2013-06-29 05:14:00,
2013-06-29 01:15:00,73.6,63.2,29.75,SSW,197,0.0,0.3,69,0.00,,,0.01,Meteorologica,2013-06-29 05:15:00,
2013-06-29 01:16:00,73.5,63.2,29.75,SSW,197,0.0,0.3,69,0.00,,,0.01,Meteorologica,2013-06-29 05:16:00,
2013-06-29 01:17:00,73.6,63.2,29.75,SSW,197,0.0,0.3,69,0.00,,,0.01,Meteorologica,2013-06-29 05:17:00,
2013-06-29 01:18:00,73.7,63.3,29.75,SSW,197,0.0,0.3,69,0.00,,,0.01,Meteorologica,2013-06-29 05:18:00,
2013-06-29 01:19:00,68.9,68.9,29.73,West,269,0.0,0.0,100,0.27,,,0.00,Meteorologica,2013-06-29 05:19:00,
2013-06-29 01:20:00,73.5,63.3,29.75,SSW,197,0.0,0.0,69,0.00,,,0.01,Meteorologica,2013-06-29 05:20:00,
2013-06-29 01:21:00,73.5,63.3,29.75,SSW,197,0.0,0.0,69,0.00,,,0.01,Meteorologica,2013-06-29 05:21:00,
2013-06-29 01:22:00,73.5,63.3,29.75,SSW,197,0.0,0.0,70,0.00,,,0.01,Meteorologica,2013-06-29 05:22:00,
2013-06-29 01:23:00,73.6,63.6,29.75,SSW,197,0.0,0.0,70,0.00,,,0.01,Meteorologica,2013-06-29 05:23:00,
2013-06-29 01:24:00,69.0,69.0,29.73,West,269,0.0,0.0,100,0.27,,,0.00,Meteorologica,2013-06-29 05:24:00,
2013-06-29 01:25:00,73.6,63.8,29.75,SSW,197,0.0,0.0,70,0.00,,,0.01,Meteorologica,2013-06-29 05:25:00,
2013-06-29 01:26:00,73.6,63.7,29.75,SSW,197,0.0,0.0,70,0.00,,,0.01,Meteorologica,2013-06-29 05:26:00,
2013-06-29 01:27:00,73.6,63.6,29.75,SSW,197,0.0,0.0,70,0.00,,,0.01,Meteorologica,2013-06-29 05:27:00,
2013-06-29 01:28:00,73.5,63.5,29.75,SSW,197,0.0,0.0,70,0.00,,,0.01,Meteorologica,2013-06-29 05:28:00,
2013-06-29 01:29:00,68.9,68.9,29.72,West,269,0.0,0.0,100,0.27,,,0.00,Meteorologica,2013-06-29 05:29:00,
2013-06-29 01:30:00,73.5,63.5,29.75,SSW,197,0.0,0.0,70,0.00,,,0.01,Meteorologica,2013-06-29 05:30:00,
2013-06-29 01:31:00,73.5,63.6,29.75,SSW,197,0.0,0.0,70,0.00,,,0.01,Meteorologica,2013-06-29 05:31:00,
2013-06-29 01:32:00,73.5,63.5,29.75,SSW,197,0.0,0.0,70,0.00,,,0.01,Meteorologica,2013-06-29 05:32:00,
2013-06-29 01:33:00,73.4,63.5,29.75,SSW,197,0.0,0.0,70,0.00,,,0.01,Meteorologica,2013-06-29 05:33:00,
2013-06-29 01:34:00,69.2,69.2,29.72,West,269,0.0,0.0,100,0.27,,,0.00,Meteorologica,2013-06-29 05:34:00,
2013-06-29 01:35:00,73.5,63.5,29.74,SSW,197,0.0,0.0,70,0.00,,,0.01,Meteorologica,2013-06-29 05:35:00,
2013-06-29 01:36:00,73.6,63.7,29.74,SSW,197,0.0,0.0,70,0.00,,,0.01,Meteorologica,2013-06-29 05:36:00,
2013-06-29 01:37:00,73.5,63.6,29.74,SSW,197,0.0,0.0,70,0.00,,,0.01,Meteorologica,2013-06-29 05:37:00,
2013-06-29 01:38:00,73.4,63.5,29.74,SSW,197,0.0,0.0,70,0.00,,,0.01,Meteorologica,2013-06-29 05:38:00,
2013-06-29 01:39:00,69.1,69.1,29.72,West,269,0.0,0.0,100,0.27,,,0.00,Meteorologica,2013-06-29 05:39:00,
2013-06-29 01:40:00,73.5,63.5,29.75,SSW,197,0.0,0.0,70,0.00,,,0.01,Meteorologica,2013-06-29 05:40:00,
2013-06-29 01:41:00,73.3,63.4,29.75,SSW,197,0.0,0.0,70,0.00,,,0.01,Meteorologica,2013-06-29 05:41:00,
2013-06-29 01:42:00,73.5,63.5,29.75,SSW,197,0.0,0.0,70,0.00,,,0.01,Meteorologica,2013-06-29 05:42:00,
2013-06-29 01:43:00,73.3,63.3,29.74,SSW,197,0.0,0.0,70,0.00,,,0.01,Meteorologica,2013-06-29 05:43:00,
2013-06-29 01:44:00,73.3,63.4,29.74,SSW,197,0.0,0.0,70,0.00,,,0.01,Meteorologica,2013-06-29 05:44:00,
2013-06-29 01:45:00,69.3,69.3,29.72,West,269,0.0,0.0,100,0.27,,,0.00,Meteorologica,2013-06-29 05:45:00,
2013-06-29 01:46:00,73.3,63.4,29.75,SSW,197,0.0,0.0,70,0.00,,,0.01,Meteorologica,2013-06-29 05:46:00,
2013-06-29 01:47:00,73.3,63.5,29.74,SSW,197,0.0,0.0,70,0.00,,,0.01,Meteorologica,2013-06-29 05:47:00,
2013-06-29 01:48:00,73.3,63.6,29.75,SSW,197,0.0,0.0,71,0.00,,,0.01,Meteorologica,2013-06-29 05:48:00,
2013-06-29 01:49:00,73.2,63.6,29.74,SSW,197,0.0,0.0,71,0.00,,,0.01,Meteorologica,2013-06-29 05:49:00,
2013-06-29 01:50:00,69.1,69.1,29.72,West,269,0.0,0.0,100,0.11,,,0.00,Meteorologica,2013-06-29 05:50:00,
2013-06-29 01:51:00,73.3,63.8,29.75,SSW,197,0.0,0.0,71,0.00,,,0.01,Meteorologica,2013-06-29 05:51:00,
2013-06-29 01:52:00,73.2,63.8,29.75,SSW,213,0.1,0.0,71,0.00,,,0.01,Meteorologica,2013-06-29 05:52:00,
2013-06-29 01:53:00,73.2,63.8,29.74,SW,232,0.7,0.0,72,0.00,,,0.01,Meteorologica,2013-06-29 05:53:00,
2013-06-29 01:54:00,73.2,63.9,29.75,SW,232,0.3,0.0,72,0.00,,,0.01,Meteorologica,2013-06-29 05:54:00,
2013-06-29 01:55:00,69.3,69.3,29.72,West,269,0.0,0.0,100,0.01,,,0.00,Meteorologica,2013-06-29 05:55:00,
2013-06-29 01:56:00,73.2,63.8,29.75,SW,220,0.0,2.4,72,0.00,,,0.01,Meteorologica,2013-06-29 05:56:00,
2013-06-29 01:57:00,73.2,63.8,29.74,SW,230,0.4,2.4,72,0.00,,,0.01,Meteorologica,2013-06-29 05:57:00,
2013-06-29 01:58:00,73.1,63.8,29.74,SW,230,0.1,2.4,72,0.00,,,0.01,Meteorologica,2013-06-29 05:58:00,
2013-06-29 01:59:00,73.0,63.8,29.75,SW,230,0.0,2.4,72,0.00,,,0.01,Meteorologica,2013-06-29 05:59:00,
2013-06-29 02:00:00,69.0,69.0,29.72,West,269,0.0,0.0,100,0.00,,,0.00,Meteorologica,2013-06-29 06:00:00,
2013-06-29 02:05:00,68.9,68.9,29.72,West,269,0.0,0.0,100,0.00,,,0.00,Meteorologica,2013-06-29 06:05:00,
2013-06-29 02:10:00,69.1,69.1,29.72,West,269,0.0,0.0,100,0.00,,,0.00,Meteorologica,2013-06-29 06:10:00,
2013-06-29 02:15:00,69.0,69.0,29.72,West,269,0.0,0.0,100,0.00,,,0.00,Meteorologica,2013-06-29 06:15:00,
2013-06-29 02:20:00,68.9,68.9,29.72,West,269,0.0,0.0,100,0.00,,,0.00,Meteorologica,2013-06-29 06:20:00,
2013-06-29 02:25:00,68.8,68.8,29.73,West,269,0.0,0.0,100,0.00,,,0.00,Meteorologica,2013-06-29 06:25:00,
2013-06-29 02:31:00,68.7,68.7,29.72,West,269,0.0,0.0,100,0.00,,,0.00,Meteorologica,2013-06-29 06:31:00,
2013-06-29 02:36:00,68.8,68.8,29.72,West,269,0.0,0.0,100,0.00,,,0.00,Meteorologica,2013-06-29 06:36:00,
2013-06-29 02:41:00,68.7,68.7,29.72,West,269,0.0,0.0,100,0.00,,,0.00,Meteorologica,2013-06-29 06:41:00,
2013-06-29 02:46:00,68.5,68.5,29.72,West,269,0.0,0.0,100,0.00,,,0.00,Meteorologica,2013-06-29 06:46:00,
2013-06-29 02:51:00,68.6,68.6,29.72,West,269,0.0,0.0,100,0.00,,,0.00,Meteorologica,2013-06-29 06:51:00,
2013-06-29 02:56:00,68.7,68.7,29.72,West,269,0.0,0.0,100,0.00,,,0.00,Meteorologica,2013-06-29 06:56:00,
2013-06-29 03:01:00,68.6,68.6,29.72,West,269,0.0,0.0,100,0.00,,,0.00,Meteorologica,2013-06-29 07:01:00,
2013-06-29 03:06:00,68.4,68.4,29.72,West,269,0.0,0.0,100,0.00,,,0.00,Meteorologica,2013-06-29 07:06:00,
2013-06-29 03:12:00,68.4,68.4,29.72,West,269,0.0,0.0,100,0.00,,,0.00,Meteorologica,2013-06-29 07:12:00,
2013-06-29 03:17:00,68.5,68.5,29.72,West,269,0.0,0.0,100,0.00,,,0.00,Meteorologica,2013-06-29 07:17:00,
2013-06-29 03:22:00,68.4,68.4,29.73,West,269,0.0,0.0,100,0.00,,,0.00,Meteorologica,2013-06-29 07:22:00,
2013-06-29 03:27:00,68.5,68.5,29.73,West,269,0.0,0.0,100,0.00,,,0.00,Meteorologica,2013-06-29 07:27:00,
2013-06-29 03:32:00,68.4,68.4,29.73,West,269,0.0,0.0,100,0.00,,,0.00,Meteorologica,2013-06-29 07:32:00,
2013-06-29 03:37:00,68.5,68.5,29.72,West,269,0.0,0.0,100,0.00,,,0.00,Meteorologica,2013-06-29 07:37:00,
2013-06-29 03:42:00,68.4,68.4,29.72,West,269,0.0,0.0,100,0.00,,,0.00,Meteorologica,2013-06-29 07:42:00,
2013-06-29 03:48:00,68.4,68.4,29.73,West,269,0.0,0.0,100,0.00,,,0.00,Meteorologica,2013-06-29 07:48:00,
2013-06-29 03:53:00,68.6,68.6,29.73,West,269,0.0,0.0,100,0.00,,,0.00,Meteorologica,2013-06-29 07:53:00,
2013-06-29 03:58:00,68.7,68.7,29.73,West,269,0.0,0.0,100,0.00,,,0.00,Meteorologica,2013-06-29 07:58:00,
2013-06-29 04:03:00,68.9,68.9,29.72,West,269,0.0,0.0,100,0.00,,,0.00,Meteorologica,2013-06-29 08:03:00,
2013-06-29 04:08:00,68.8,68.8,29.72,West,269,0.0,0.0,100,0.00,,,0.00,Meteorologica,2013-06-29 08:08:00,
2013-06-29 04:13:00,69.0,69.0,29.72,West,269,0.0,0.0,100,0.00,,,0.00,Meteorologica,2013-06-29 08:13:00,
2013-06-29 04:19:00,69.0,69.0,29.72,West,269,0.0,0.0,100,0.00,,,0.00,Meteorologica,2013-06-29 08:19:00,
2013-06-29 04:24:00,69.1,69.1,29.72,West,269,0.0,0.0,100,0.00,,,0.00,Meteorologica,2013-06-29 08:24:00,
2013-06-29 04:29:00,69.2,69.2,29.72,West,269,0.0,0.0,100,0.00,,,0.00,Meteorologica,2013-06-29 08:29:00,
2013-06-29 04:34:00,69.4,69.4,29.73,WSW,249,0.3,5.6,100,0.00,,,0.00,Meteorologica,2013-06-29 08:34:00,
2013-06-29 04:39:00,69.4,69.4,29.73,WSW,238,0.1,0.0,100,0.00,,,0.00,Meteorologica,2013-06-29 08:39:00,
2013-06-29 05:00:00,69.9,69.9,29.74,SSW,210,0.1,6.9,100,0.01,,,0.01,Meteorologica,2013-06-29 09:00:00,
2013-06-29 05:05:00,69.9,69.9,29.73,SSE,153,3.0,4.5,100,0.01,,,0.01,Meteorologica,2013-06-29 09:05:00,
2013-06-29 05:10:00,70.0,70.0,29.74,SSW,210,3.1,5.1,100,0.01,,,0.01,Meteorologica,2013-06-29 09:10:00,
2013-06-29 05:15:00,70.1,70.1,29.74,SW,232,0.0,4.5,100,0.01,,,0.01,Meteorologica,2013-06-29 09:15:00,
2013-06-29 05:20:00,70.1,70.1,29.74,SW,232,0.0,0.0,100,0.01,,,0.01,Meteorologica,2013-06-29 09:20:00,
2013-06-29 05:25:00,70.0,70.0,29.74,SW,232,0.0,0.0,100,0.01,,,0.01,Meteorologica,2013-06-29 09:25:00,
2013-06-29 05:30:00,70.1,70.1,29.74,SW,232,0.0,0.0,100,0.01,,,0.01,Meteorologica,2013-06-29 09:30:00,
2013-06-29 05:35:00,70.0,70.0,29.74,SE,132,0.0,0.8,100,0.01,,,0.01,Meteorologica,2013-06-29 09:35:00,
2013-06-29 05:40:00,70.0,70.0,29.74,SE,132,0.0,0.0,100,0.01,,,0.01,Meteorologica,2013-06-29 09:40:00,
2013-06-29 05:45:00,69.9,69.9,29.74,SE,132,0.0,0.0,100,0.01,,,0.01,Meteorologica,2013-06-29 09:45:00,
2013-06-29 05:50:00,70.0,70.0,29.74,SE,132,0.0,0.0,100,0.01,,,0.01,Meteorologica,2013-06-29 09:50:00,
2013-06-29 05:55:00,70.0,70.0,29.75,SE,132,0.0,0.0,100,0.01,,,0.01,Meteorologica,2013-06-29 09:55:00,
2013-06-29 06:00:00,70.0,70.0,29.75,SE,132,0.0,0.0,100,0.00,,,0.01,Meteorologica,2013-06-29 10:00:00,
2013-06-29 06:05:00,69.8,69.8,29.75,SE,132,0.0,0.0,100,0.00,,,0.01,Meteorologica,2013-06-29 10:05:00,
2013-06-29 06:10:00,69.9,69.9,29.75,SE,132,0.0,0.0,100,0.00,,,0.01,Meteorologica,2013-06-29 10:10:00,
2013-06-29 06:16:00,69.6,69.6,29.75,SE,132,0.0,0.0,100,0.00,,,0.01,Meteorologica,2013-06-29 10:16:00,
2013-06-29 06:21:00,69.8,69.8,29.75,SE,132,0.0,0.0,100,0.00,,,0.01,Meteorologica,2013-06-29 10:21:00,
2013-06-29 06:26:00,69.7,69.7,29.75,SE,132,0.0,0.0,100,0.00,,,0.01,Meteorologica,2013-06-29 10:26:00,
2013-06-29 06:31:00,69.6,69.6,29.75,SE,132,0.0,0.0,100,0.00,,,0.01,Meteorologica,2013-06-29 10:31:00,
2013-06-29 06:37:00,69.6,69.6,29.75,SE,132,0.0,0.0,100,0.00,,,0.01,Meteorologica,2013-06-29 10:37:00,
2013-06-29 06:42:00,69.5,69.5,29.75,SE,132,0.0,0.0,100,0.00,,,0.01,Meteorologica,2013-06-29 10:42:00,
2013-06-29 06:47:00,69.5,69.5,29.75,SE,132,0.0,0.0,100,0.00,,,0.01,Meteorologica,2013-06-29 10:47:00,
2013-06-29 06:52:00,69.5,69.5,29.75,SE,132,0.0,0.0,100,0.00,,,0.01,Meteorologica,2013-06-29 10:52:00,
2013-06-29 06:57:00,69.4,69.4,29.74,SE,132,0.0,0.0,100,0.00,,,0.01,Meteorologica,2013-06-29 10:57:00,
2013-06-29 07:02:00,69.4,69.4,29.75,SE,132,0.0,0.0,100,0.00,,,0.01,Meteorologica,2013-06-29 11:02:00,
2013-06-29 07:07:00,69.4,69.4,29.74,SE,132,0.0,0.0,100,0.00,,,0.01,Meteorologica,2013-06-29 11:07:00,
2013-06-29 07:13:00,69.2,69.2,29.75,SE,132,0.0,0.0,100,0.00,,,0.01,Meteorologica,2013-06-29 11:13:00,
2013-06-29 07:18:00,69.3,69.3,29.74,SE,132,0.0,0.0,100,0.00,,,0.01,Meteorologica,2013-06-29 11:18:00,
2013-06-29 07:23:00,69.5,69.5,29.75,SE,132,0.0,0.0,100,0.00,,,0.01,Meteorologica,2013-06-29 11:23:00,
2013-06-29 07:28:00,69.4,69.4,29.74,SE,132,0.0,0.0,100,0.00,,,0.01,Meteorologica,2013-06-29 11:28:00,
2013-06-29 07:33:00,69.5,69.5,29.74,SE,132,0.0,0.0,100,0.00,,,0.01,Meteorologica,2013-06-29 11:33:00,
2013-06-29 07:38:00,69.5,69.5,29.74,SE,132,0.0,0.0,100,0.00,,,0.01,Meteorologica,2013-06-29 11:38:00,
2013-06-29 07:44:00,69.4,69.4,29.74,SE,132,0.0,0.0,100,0.00,,,0.01,Meteorologica,2013-06-29 11:44:00,
2013-06-29 07:49:00,69.7,69.7,29.74,SE,132,0.0,0.0,100,0.00,,,0.01,Meteorologica,2013-06-29 11:49:00,
2013-06-29 07:54:00,69.8,69.8,29.74,SE,132,0.0,0.0,100,0.00,,,0.01,Meteorologica,2013-06-29 11:54:00,
2013-06-29 07:59:00,69.9,69.9,29.74,SE,132,0.0,0.0,100,0.00,,,0.01,Meteorologica,2013-06-29 11:59:00,
2013-06-29 08:05:00,70.1,70.1,29.75,SE,132,0.0,0.0,100,0.00,,,0.01,Meteorologica,2013-06-29 12:05:00,
2013-06-29 08:10:00,70.1,70.1,29.74,SE,132,0.0,0.0,100,0.00,,,0.01,Meteorologica,2013-06-29 12:10:00,
2013-06-29 08:15:00,70.2,70.2,29.75,SE,132,0.0,0.0,100,0.00,,,0.01,Meteorologica,2013-06-29 12:15:00,
2013-06-29 08:20:00,70.5,70.5,29.74,SE,132,0.0,0.0,100,0.00,,,0.01,Meteorologica,2013-06-29 12:20:00,
2013-06-29 08:25:00,70.4,70.4,29.74,SW,231,2.1,4.2,100,0.00,,,0.01,Meteorologica,2013-06-29 12:25:00,
2013-06-29 08:30:00,70.5,70.5,29.74,South,176,1.2,3.8,100,0.00,,,0.01,Meteorologica,2013-06-29 12:30:00,
2013-06-29 08:35:00,70.6,70.6,29.74,South,180,0.1,3.5,100,0.00,,,0.01,Meteorologica,2013-06-29 12:35:00,
2013-06-29 08:40:00,70.8,70.8,29.74,SSW,208,0.0,2.8,100,0.00,,,0.01,Meteorologica,2013-06-29 12:40:00,
2013-06-29 08:45:00,71.0,71.0,29.74,South,176,0.0,2.4,100,0.00,,,0.01,Meteorologica,2013-06-29 12:45:00,
2013-06-29 09:00:00,71.3,71.3,29.73,East,97,0.0,1.9,100,0.00,,,0.01,Meteorologica,2013-06-29 13:00:00,
2013-06-29 09:05:00,71.5,71.5,29.73,SW,220,0.7,2.8,100,0.00,,,0.01,Meteorologica,2013-06-29 13:05:00,
2013-06-29 09:10:00,71.7,71.7,29.73,NNW,333,0.0,2.0,100,0.00,,,0.01,Meteorologica,2013-06-29 13:10:00,
2013-06-29 09:15:00,71.7,71.7,29.73,West,265,1.1,1.1,100,0.00,,,0.01,Meteorologica,2013-06-29 13:15:00,
2013-06-29 09:20:00,71.8,71.8,29.73,West,266,1.5,3.3,100,0.00,,,0.01,Meteorologica,2013-06-29 13:20:00,
2013-06-29 09:25:00,71.7,71.7,29.73,SSW,204,0.0,2.6,100,0.00,,,0.01,Meteorologica,2013-06-29 13:25:00,
2013-06-29 09:31:00,71.9,71.9,29.74,WSW,254,0.1,0.0,100,0.00,,,0.01,Meteorologica,2013-06-29 13:31:00,
2013-06-29 09:35:00,72.1,72.1,29.74,WSW,242,0.8,0.9,100,0.00,,,0.01,Meteorologica,2013-06-29 13:35:00,
2013-06-29 09:41:00,72.1,72.1,29.74,SW,231,0.0,3.3,100,0.00,,,0.01,Meteorologica,2013-06-29 13:41:00,
2013-06-29 09:46:00,72.2,72.2,29.74,SSW,203,1.0,0.0,100,0.00,,,0.01,Meteorologica,2013-06-29 13:46:00,
2013-06-29 09:51:00,72.4,72.4,29.74,SSE,148,1.3,3.2,100,0.00,,,0.01,Meteorologica,2013-06-29 13:51:00,
2013-06-29 09:56:00,72.5,72.5,29.75,South,179,2.4,2.7,100,0.00,,,0.01,Meteorologica,2013-06-29 13:56:00,
2013-06-29 10:01:00,72.7,72.7,29.74,SSW,205,0.4,4.2,100,0.00,,,0.01,Meteorologica,2013-06-29 14:01:00,
2013-06-29 10:06:00,72.9,72.9,29.74,South,187,0.5,4.0,100,0.00,,,0.01,Meteorologica,2013-06-29 14:06:00,
2013-06-29 10:11:00,73.0,73.0,29.74,WSW,241,0.1,4.0,100,0.00,,,0.01,Meteorologica,2013-06-29 14:11:00,
2013-06-29 10:16:00,73.2,73.2,29.74,SW,233,1.8,2.7,100,0.00,,,0.01,Meteorologica,2013-06-29 14:16:00,
2013-06-29 10:21:00,73.5,73.5,29.74,South,184,1.9,5.8,100,0.00,,,0.01,Meteorologica,2013-06-29 14:21:00,
2013-06-29 10:26:00,73.6,73.6,29.75,SSW,206,2.7,5.3,100,0.00,,,0.01,Meteorologica,2013-06-29 14:26:00,
2013-06-29 10:31:00,74.1,74.1,29.74,SSW,210,2.1,5.3,100,0.00,,,0.01,Meteorologica,2013-06-29 14:31:00,
2013-06-29 10:36:00,74.2,74.2,29.75,WSW,258,1.8,4.2,100,0.00,,,0.01,Meteorologica,2013-06-29 14:36:00,
2013-06-29 10:41:00,74.4,74.4,29.74,WSW,252,0.9,4.3,100,0.00,,,0.01,Meteorologica,2013-06-29 14:41:00,
2013-06-29 10:46:00,74.6,74.4,29.74,WNW,295,2.4,3.8,99,0.00,,,0.01,Meteorologica,2013-06-29 14:46:00,
2013-06-29 10:51:00,75.2,74.6,29.75,South,190,3.7,5.6,98,0.00,,,0.01,Meteorologica,2013-06-29 14:51:00,
2013-06-29 10:56:00,75.7,75.1,29.74,NW,315,1.2,5.0,98,0.00,,,0.01,Meteorologica,2013-06-29 14:56:00,
2013-06-29 11:01:00,76.0,74.3,29.75,South,190,1.3,4.8,94,0.00,,,0.01,Meteorologica,2013-06-29 15:01:00,
2013-06-29 11:06:00,76.1,72.9,29.75,SW,215,1.9,4.7,90,0.00,,,0.01,Meteorologica,2013-06-29 15:06:00,
2013-06-29 11:11:00,76.2,62.8,29.75,SSE,161,2.5,5.1,62,0.00,,,0.01,Meteorologica,2013-06-29 15:11:00,
2013-06-29 11:16:00,76.9,63.8,29.74,South,187,0.6,4.7,63,0.00,,,0.01,Meteorologica,2013-06-29 15:16:00,
2013-06-29 11:21:00,77.1,62.7,29.74,NE,43,0.8,2.9,60,0.00,,,0.01,Meteorologica,2013-06-29 15:21:00,
2013-06-29 11:26:00,77.8,63.2,29.75,SE,143,1.8,4.8,60,0.00,,,0.01,Meteorologica,2013-06-29 15:26:00,
2013-06-29 11:31:00,78.3,60.9,29.75,SSW,196,3.3,5.4,54,0.00,,,0.01,Meteorologica,2013-06-29 15:31:00,
2013-06-29 11:36:00,79.2,62.4,29.75,East,87,0.0,5.3,56,0.00,,,0.01,Meteorologica,2013-06-29 15:36:00,
2013-06-29 11:41:00,79.8,63.0,29.75,NE,52,1.7,5.3,55,0.00,,,0.01,Meteorologica,2013-06-29 15:41:00,
2013-06-29 11:46:00,80.4,61.8,29.75,NW,315,3.5,6.4,52,0.00,,,0.01,Meteorologica,2013-06-29 15:46:00,
2013-06-29 11:51:00,80.8,60.3,29.75,East,93,0.1,7.3,49,0.00,,,0.01,Meteorologica,2013-06-29 15:51:00,
2013-06-29 11:56:00,81.4,60.0,29.75,SW,228,0.3,6.0,48,0.00,,,0.01,Meteorologica,2013-06-29 15:56:00,
2013-06-29 12:01:00,81.9,61.1,29.75,NE,35,2.2,2.7,49,0.00,,,0.01,Meteorologica,2013-06-29 16:01:00,
2013-06-29 12:06:00,82.3,60.3,29.75,WNW,287,4.3,4.3,47,0.00,,,0.01,Meteorologica,2013-06-29 16:06:00,
2013-06-29 12:11:00,82.6,60.1,29.75,ESE,122,0.2,7.3,46,0.00,,,0.01,Meteorologica,2013-06-29 16:11:00,
2013-06-29 12:16:00,82.8,57.6,29.75,WSW,256,3.0,6.1,42,0.00,,,0.01,Meteorologica,2013-06-29 16:16:00,
2013-06-29 12:21:00,83.3,57.6,29.75,SSW,204,0.6,6.8,41,0.00,,,0.01,Meteorologica,2013-06-29 16:21:00,
2013-06-29 12:26:00,84.0,56.9,29.75,SW,229,1.9,4.2,39,0.00,,,0.01,Meteorologica,2013-06-29 16:26:00,
2013-06-29 12:31:00,84.2,58.8,29.75,East,91,1.6,5.4,42,0.00,,,0.01,Meteorologica,2013-06-29 16:31:00,
2013-06-29 12:36:00,84.3,57.7,29.75,NNW,332,2.7,7.4,40,0.00,,,0.01,Meteorologica,2013-06-29 16:36:00,
2013-06-29 12:41:00,84.5,57.8,29.75,WNW,290,1.8,7.4,40,0.00,,,0.01,Meteorologica,2013-06-29 16:41:00,
2013-06-29 12:46:00,84.7,57.3,29.75,West,276,1.7,6.9,39,0.00,,,0.01,Meteorologica,2013-06-29 16:46:00,
2013-06-29 12:51:00,85.1,58.3,29.75,SSW,199,1.3,5.3,40,0.00,,,0.01,Meteorologica,2013-06-29 16:51:00,
2013-06-29 12:56:00,85.2,57.8,29.75,SSW,207,1.8,6.1,39,0.00,,,0.01,Meteorologica,2013-06-29 16:56:00,
2013-06-29 13:01:00,85.3,60.9,29.75,East,91,0.0,8.6,43,0.00,,,0.01,Meteorologica,2013-06-29 17:01:00,
2013-06-29 13:06:00,85.6,58.3,29.75,WNW,289,2.0,3.4,39,0.00,,,0.01,Meteorologica,2013-06-29 17:06:00,
2013-06-29 13:11:00,85.8,58.1,29.75,WSW,238,3.6,6.8,39,0.00,,,0.01,Meteorologica,2013-06-29 17:11:00,
2013-06-29 13:16:00,85.7,57.6,29.75,WNW,289,0.8,6.4,38,0.00,,,0.01,Meteorologica,2013-06-29 17:16:00,
2013-06-29 13:21:00,85.5,56.0,29.75,SSE,160,2.3,7.1,36,0.00,,,0.01,Meteorologica,2013-06-29 17:21:00,
2013-06-29 13:26:00,85.2,55.7,29.75,SW,228,1.8,4.5,36,0.00,,,0.01,Meteorologica,2013-06-29 17:26:00,
2013-06-29 13:31:00,84.5,57.7,29.75,SW,220,2.1,7.7,40,0.00,,,0.01,Meteorologica,2013-06-29 17:31:00,
2013-06-29 13:36:00,83.9,58.4,29.75,SW,221,1.2,5.9,42,0.00,,,0.01,Meteorologica,2013-06-29 17:36:00,
2013-06-29 13:41:00,83.2,58.8,29.75,SSW,204,1.7,3.2,43,0.00,,,0.01,Meteorologica,2013-06-29 17:41:00,
2013-06-29 13:46:00,82.7,59.2,29.75,South,189,1.6,3.6,45,0.00,,,0.01,Meteorologica,2013-06-29 17:46:00,
2013-06-29 13:51:00,82.5,60.4,29.75,NW,304,1.9,4.4,46,0.00,,,0.01,Meteorologica,2013-06-29 17:51:00,
2013-06-29 13:56:00,82.3,59.9,29.75,South,170,0.9,4.7,46,0.00,,,0.01,Meteorologica,2013-06-29 17:56:00,
2013-06-29 14:01:00,82.4,61.3,29.74,SE,132,1.3,4.7,48,0.00,,,0.01,Meteorologica,2013-06-29 18:01:00,
2013-06-29 14:06:00,82.8,61.0,29.74,SE,132,0.9,4.1,47,0.00,,,0.01,Meteorologica,2013-06-29 18:06:00,
2013-06-29 14:11:00,83.2,61.8,29.73,WSW,254,1.9,6.5,48,0.00,,,0.01,Meteorologica,2013-06-29 18:11:00,
2013-06-29 14:16:00,83.6,62.7,29.74,SW,222,1.6,6.5,49,0.00,,,0.01,Meteorologica,2013-06-29 18:16:00,
2013-06-29 14:21:00,84.3,61.2,29.73,SW,228,1.9,5.9,45,0.00,,,0.01,Meteorologica,2013-06-29 18:21:00,
2013-06-29 15:00:00,87.0,60.7,29.73,SE,145,1.9,4.7,40,0.00,,,0.01,Meteorologica,2013-06-29 19:00:00,
2013-06-29 15:05:00,86.9,58.9,29.73,WSW,237,0.0,8.1,39,0.00,,,0.01,Meteorologica,2013-06-29 19:05:00,
2013-06-29 15:10:00,87.0,58.9,29.73,SSE,164,2.7,6.1,38,0.00,,,0.01,Meteorologica,2013-06-29 19:10:00,
2013-06-29 15:15:00,87.2,57.0,29.73,South,188,3.1,6.1,36,0.00,,,0.01,Meteorologica,2013-06-29 19:15:00,
2013-06-29 15:20:00,87.5,58.6,29.73,WNW,293,2.8,10.5,37,0.00,,,0.01,Meteorologica,2013-06-29 19:20:00,
2013-06-29 15:25:00,87.7,59.4,29.72,SW,221,3.5,6.0,38,0.00,,,0.01,Meteorologica,2013-06-29 19:25:00,
2013-06-29 15:30:00,87.7,58.6,29.72,WSW,245,2.1,7.0,37,0.00,,,0.01,Meteorologica,2013-06-29 19:30:00,
2013-06-29 15:35:00,87.8,59.4,29.72,ENE,61,2.4,8.4,38,0.00,,,0.01,Meteorologica,2013-06-29 19:35:00,
2013-06-29 15:40:00,87.7,57.1,29.72,West,262,0.9,7.6,35,0.00,,,0.01,Meteorologica,2013-06-29 19:40:00,
2013-06-29 15:45:00,87.7,59.4,29.72,NNW,327,0.4,7.6,38,0.00,,,0.01,Meteorologica,2013-06-29 19:45:00,
2013-06-29 15:50:00,87.8,58.3,29.72,SW,215,0.9,6.6,37,0.00,,,0.01,Meteorologica,2013-06-29 19:50:00,
2013-06-29 15:55:00,87.8,56.8,29.72,West,273,3.4,9.6,35,0.00,,,0.01,Meteorologica,2013-06-29 19:55:00,
2013-06-29 16:00:00,87.7,57.1,29.72,West,276,3.9,8.2,35,0.00,,,0.01,Meteorologica,2013-06-29 20:00:00,
2013-06-29 16:05:00,87.7,59.3,29.72,WSW,254,2.8,7.9,38,0.00,,,0.01,Meteorologica,2013-06-29 20:05:00,
2013-06-29 16:10:00,87.5,56.8,29.72,NNW,334,0.8,9.0,35,0.00,,,0.01,Meteorologica,2013-06-29 20:10:00,
2013-06-29 16:15:00,87.4,56.3,29.72,SW,229,5.1,8.4,35,0.00,,,0.01,Meteorologica,2013-06-29 20:15:00,
2013-06-29 16:20:00,87.4,57.6,29.72,South,182,3.0,9.4,36,0.00,,,0.01,Meteorologica,2013-06-29 20:20:00,
2013-06-29 16:25:00,87.5,55.7,29.72,SE,135,3.8,7.9,34,0.00,,,0.01,Meteorologica,2013-06-29 20:25:00,
2013-06-29 16:30:00,87.4,56.2,29.72,SE,139,4.2,7.8,34,0.00,,,0.01,Meteorologica,2013-06-29 20:30:00,
2013-06-29 16:35:00,87.2,56.8,29.72,SSW,209,3.7,6.6,35,0.00,,,0.01,Meteorologica,2013-06-29 20:35:00,
2013-06-29 16:40:00,87.5,57.7,29.72,WSW,248,5.0,8.2,36,0.00,,,0.01,Meteorologica,2013-06-29 20:40:00,
2013-06-29 16:45:00,87.4,57.7,29.71,SW,234,1.2,7.1,36,0.00,,,0.01,Meteorologica,2013-06-29 20:45:00,
2013-06-29 16:50:00,87.4,56.7,29.71,SSW,199,1.7,6.3,35,0.00,,,0.01,Meteorologica,2013-06-29 20:50:00,
2013-06-29 16:55:00,87.4,57.1,29.71,WSW,243,2.0,6.5,36,0.00,,,0.01,Meteorologica,2013-06-29 20:55:00,
2013-06-29 17:00:00,87.2,56.7,29.71,WSW,245,1.4,5.1,35,0.00,,,0.01,Meteorologica,2013-06-29 21:00:00,
2013-06-29 17:05:00,87.2,58.0,29.71,SSE,162,2.2,7.6,37,0.00,,,0.01,Meteorologica,2013-06-29 21:05:00,
2013-06-29 17:10:00,86.9,58.1,29.71,SSW,213,1.5,8.4,37,0.00,,,0.01,Meteorologica,2013-06-29 21:10:00,
2013-06-29 17:15:00,86.6,56.4,29.71,SE,129,0.8,7.1,36,0.00,,,0.01,Meteorologica,2013-06-29 21:15:00,
2013-06-29 17:20:00,86.6,55.7,29.71,WSW,245,5.1,7.1,35,0.00,,,0.01,Meteorologica,2013-06-29 21:20:00,
2013-06-29 17:25:00,86.5,55.2,29.70,NW,310,0.7,9.3,34,0.00,,,0.01,Meteorologica,2013-06-29 21:25:00,
2013-06-29 17:30:00,86.7,56.4,29.70,SSE,159,0.5,5.6,35,0.00,,,0.01,Meteorologica,2013-06-29 21:30:00,
2013-06-29 17:35:00,86.6,56.0,29.70,North,4,0.9,4.8,35,0.00,,,0.01,Meteorologica,2013-06-29 21:35:00,
2013-06-29 17:40:00,86.7,56.6,29.70,ENE,64,0.3,5.1,36,0.00,,,0.01,Meteorologica,2013-06-29 21:40:00,
2013-06-29 17:45:00,86.5,56.1,29.70,NNW,333,0.1,7.3,35,0.00,,,0.01,Meteorologica,2013-06-29 21:45:00,
2013-06-29 17:50:00,86.5,55.7,29.70,West,266,1.0,4.7,35,0.00,,,0.01,Meteorologica,2013-06-29 21:50:00,
2013-06-29 17:55:00,86.4,57.5,29.70,SE,138,0.5,4.2,37,0.00,,,0.01,Meteorologica,2013-06-29 21:55:00,
2013-06-29 18:00:00,86.4,56.2,29.70,SSW,194,2.2,6.9,36,0.00,,,0.01,Meteorologica,2013-06-29 22:00:00,
2013-06-29 18:05:00,86.6,56.7,29.70,NNW,337,1.8,7.1,36,0.00,,,0.01,Meteorologica,2013-06-29 22:05:00,
2013-06-29 18:10:00,86.6,57.0,29.70,SSW,197,0.3,5.5,36,0.00,,,0.01,Meteorologica,2013-06-29 22:10:00,
2013-06-29 18:15:00,86.5,56.4,29.69,WSW,251,0.0,4.8,36,0.00,,,0.01,Meteorologica,2013-06-29 22:15:00,
2013-06-29 18:20:00,86.4,57.4,29.69,SE,141,0.0,6.3,37,0.00,,,0.01,Meteorologica,2013-06-29 22:20:00,
2013-06-29 18:25:00,85.9,57.1,29.69,SSE,152,1.2,4.5,37,0.00,,,0.01,Meteorologica,2013-06-29 22:25:00,
2013-06-29 18:30:00,85.7,56.6,29.70,ENE,74,0.5,3.0,37,0.00,,,0.01,Meteorologica,2013-06-29 22:30:00,
2013-06-29 18:35:00,85.2,56.4,29.70,NW,317,0.8,7.1,37,0.00,,,0.01,Meteorologica,2013-06-29 22:35:00,
2013-06-29 18:40:00,84.6,56.6,29.70,SSE,152,0.9,4.8,38,0.00,,,0.01,Meteorologica,2013-06-29 22:40:00,
2013-06-29 18:46:00,84.3,58.2,29.69,ESE,105,0.0,4.4,41,0.00,,,0.01,Meteorologica,2013-06-29 22:46:00,
2013-06-29 18:51:00,83.8,57.4,29.70,East,83,0.4,1.7,40,0.00,,,0.01,Meteorologica,2013-06-29 22:51:00,
2013-06-29 18:56:00,83.7,57.0,29.70,SSW,211,3.1,5.8,40,0.00,,,0.01,Meteorologica,2013-06-29 22:56:00,
2013-06-29 19:01:00,83.6,56.5,29.70,WSW,256,0.4,5.8,39,0.00,,,0.01,Meteorologica,2013-06-29 23:01:00,
2013-06-29 19:06:00,83.5,58.0,29.70,WSW,256,0.0,2.7,42,0.00,,,0.01,Meteorologica,2013-06-29 23:06:00,
2013-06-29 19:11:00,83.5,58.6,29.70,South,187,0.4,2.4,42,0.00,,,0.01,Meteorologica,2013-06-29 23:11:00,
2013-06-29 19:16:00,83.1,57.6,29.70,WSW,250,0.9,2.9,41,0.00,,,0.01,Meteorologica,2013-06-29 23:16:00,
2013-06-29 19:21:00,83.1,58.4,29.70,NNW,327,0.0,4.9,43,0.00,,,0.01,Meteorologica,2013-06-29 23:21:00,
2013-06-29 19:26:00,82.8,58.7,29.70,North,354,0.2,3.0,44,0.00,,,0.01,Meteorologica,2013-06-29 23:26:00,
2013-06-29 19:31:00,82.6,58.9,29.70,ENE,62,0.0,1.7,44,0.00,,,0.01,Meteorologica,2013-06-29 23:31:00,
2013-06-29 19:37:00,82.3,58.4,29.70,ENE,77,0.0,0.0,44,0.00,,,0.01,Meteorologica,2013-06-29 23:37:00,
2013-06-29 19:42:00,82.1,59.3,29.70,ENE,77,0.0,1.6,45,0.00,,,0.01,Meteorologica,2013-06-29 23:42:00,
2013-06-29 19:47:00,81.9,59.4,29.70,ENE,69,0.0,1.1,46,0.00,,,0.01,Meteorologica,2013-06-29 23:47:00,
2013-06-29 19:52:00,81.5,58.4,29.70,East,95,0.4,2.2,45,0.00,,,0.01,Meteorologica,2013-06-29 23:52:00,
2013-06-29 19:57:00,81.5,58.9,29.70,SW,221,0.0,3.1,46,0.00,,,0.01,Meteorologica,2013-06-29 23:57:00,
2013-06-29 20:02:00,81.1,58.7,29.70,SW,214,0.0,1.5,46,0.00,,,0.01,Meteorologica,2013-06-30 00:02:00,
2013-06-29 20:07:00,81.1,59.5,29.70,SW,218,0.0,0.0,47,0.00,,,0.01,Meteorologica,2013-06-30 00:07:00,
2013-06-29 20:12:00,80.8,59.2,29.70,SW,218,0.0,0.4,47,0.00,,,0.01,Meteorologica,2013-06-30 00:12:00,
2013-06-29 20:17:00,80.4,59.6,29.70,SW,218,0.0,0.0,49,0.00,,,0.01,Meteorologica,2013-06-30 00:17:00,
2013-06-29 20:22:00,80.4,60.0,29.70,SW,218,0.0,0.0,49,0.00,,,0.01,Meteorologica,2013-06-30 00:22:00,
2013-06-29 20:27:00,80.3,60.2,29.70,SW,218,0.0,0.0,50,0.00,,,0.01,Meteorologica,2013-06-30 00:27:00,
2013-06-29 20:33:00,80.0,60.3,29.70,SW,218,0.0,0.0,50,0.00,,,0.01,Meteorologica,2013-06-30 00:33:00,
2013-06-29 20:38:00,80.0,60.8,29.70,SW,218,0.0,0.0,51,0.00,,,0.01,Meteorologica,2013-06-30 00:38:00,
2013-06-29 20:43:00,79.4,60.6,29.70,SW,218,0.0,0.0,52,0.00,,,0.01,Meteorologica,2013-06-30 00:43:00,
2013-06-29 20:48:00,79.2,60.4,29.70,SW,218,0.0,0.0,52,0.00,,,0.01,Meteorologica,2013-06-30 00:48:00,
2013-06-29 20:53:00,79.0,60.5,29.70,SW,218,0.0,0.0,53,0.00,,,0.01,Meteorologica,2013-06-30 00:53:00,
2013-06-29 20:58:00,78.8,60.9,29.70,SW,218,0.0,0.0,54,0.00,,,0.01,Meteorologica,2013-06-30 00:58:00,
2013-06-29 21:03:00,78.3,62.0,29.70,South,191,0.0,0.4,56,0.00,,,0.01,Meteorologica,2013-06-30 01:03:00,
2013-06-29 21:08:00,78.2,62.2,29.70,South,191,0.0,0.0,57,0.00,,,0.01,Meteorologica,2013-06-30 01:08:00,
2013-06-29 21:13:00,78.0,62.6,29.70,South,191,0.0,0.0,58,0.00,,,0.01,Meteorologica,2013-06-30 01:13:00,
2013-06-29 21:18:00,77.5,62.8,29.71,South,191,0.0,0.0,60,0.00,,,0.01,Meteorologica,2013-06-30 01:18:00,
2013-06-29 21:23:00,77.2,63.0,29.71,South,191,0.0,0.0,61,0.00,,,0.01,Meteorologica,2013-06-30 01:23:00,
2013-06-29 21:24:00,77.3,63.1,29.71,South,191,0.0,0.0,61,0.00,,,0.01,Meteorologica,2013-06-30 01:24:00,
2013-06-29 21:29:00,77.2,63.7,29.72,South,191,0.0,0.0,62,0.00,,,0.01,Meteorologica,2013-06-30 01:29:00,
2013-06-29 21:34:00,76.7,63.2,29.72,South,191,0.0,0.0,62,0.00,,,0.01,Meteorologica,2013-06-30 01:34:00,
2013-06-29 21:39:00,76.4,63.0,29.72,South,191,0.0,0.0,62,0.00,,,0.01,Meteorologica,2013-06-30 01:39:00,
2013-06-29 21:44:00,76.2,63.2,29.72,South,191,0.0,0.0,63,0.00,,,0.01,Meteorologica,2013-06-30 01:44:00,
2013-06-29 21:49:00,76.0,63.4,29.72,South,191,0.0,0.0,64,0.00,,,0.01,Meteorologica,2013-06-30 01:49:00,
2013-06-29 21:54:00,76.0,63.3,29.72,South,191,0.0,0.0,64,0.00,,,0.01,Meteorologica,2013-06-30 01:54:00,
2013-06-29 21:59:00,75.7,62.9,29.72,South,191,0.0,0.0,64,0.00,,,0.01,Meteorologica,2013-06-30 01:59:00,
2013-06-29 22:04:00,75.5,62.2,29.72,South,191,0.0,0.0,63,0.00,,,0.01,Meteorologica,2013-06-30 02:04:00,
2013-06-29 22:09:00,75.3,62.4,29.73,South,191,0.0,0.0,63,0.00,,,0.01,Meteorologica,2013-06-30 02:09:00,
2013-06-29 22:14:00,75.2,62.9,29.73,South,191,0.0,0.0,65,0.00,,,0.01,Meteorologica,2013-06-30 02:14:00,
2013-06-29 22:19:00,74.9,62.5,29.73,South,191,0.0,0.0,64,0.00,,,0.01,Meteorologica,2013-06-30 02:19:00,
2013-06-29 22:24:00,74.7,62.5,29.73,South,191,0.0,0.0,65,0.00,,,0.01,Meteorologica,2013-06-30 02:24:00,
2013-06-29 22:29:00,74.6,62.7,29.73,South,191,0.0,0.0,66,0.00,,,0.01,Meteorologica,2013-06-30 02:29:00,
2013-06-29 22:34:00,74.5,62.5,29.73,South,191,0.0,0.0,65,0.00,,,0.01,Meteorologica,2013-06-30 02:34:00,
2013-06-29 22:39:00,74.2,62.3,29.73,South,191,0.0,0.0,65,0.00,,,0.01,Meteorologica,2013-06-30 02:39:00,
2013-06-29 22:45:00,74.2,62.3,29.74,South,191,0.0,0.0,66,0.00,,,0.01,Meteorologica,2013-06-30 02:45:00,
2013-06-29 22:50:00,74.1,62.3,29.74,South,191,0.0,0.0,66,0.00,,,0.01,Meteorologica,2013-06-30 02:50:00,
2013-06-29 22:55:00,74.0,62.1,29.74,South,191,0.0,0.0,65,0.00,,,0.01,Meteorologica,2013-06-30 02:55:00,
2013-06-29 23:00:00,73.9,62.1,29.74,South,191,0.0,0.0,66,0.00,,,0.01,Meteorologica,2013-06-30 03:00:00,
2013-06-29 23:05:00,73.8,61.9,29.74,South,191,0.0,0.0,65,0.00,,,0.01,Meteorologica,2013-06-30 03:05:00,
2013-06-29 23:10:00,73.5,61.6,29.74,South,191,0.0,0.0,65,0.00,,,0.01,Meteorologica,2013-06-30 03:10:00,
2013-06-29 23:15:00,73.5,62.0,29.74,South,191,0.0,0.0,66,0.00,,,0.01,Meteorologica,2013-06-30 03:15:00,
2013-06-29 23:20:00,73.3,61.9,29.75,SW,224,0.8,0.0,67,0.00,,,0.01,Meteorologica,2013-06-30 03:20:00,
2013-06-29 23:25:00,73.2,61.5,29.75,SW,224,0.0,2.4,66,0.00,,,0.01,Meteorologica,2013-06-30 03:25:00,
2013-06-29 23:30:00,73.3,61.9,29.74,SW,224,0.0,0.0,67,0.00,,,0.01,Meteorologica,2013-06-30 03:30:00,
2013-06-29 23:36:00,73.2,62.0,29.74,SW,224,0.0,0.0,67,0.00,,,0.01,Meteorologica,2013-06-30 03:36:00,
2013-06-29 23:41:00,73.3,62.2,29.74,SW,224,0.0,0.0,67,0.00,,,0.01,Meteorologica,2013-06-30 03:41:00,
2013-06-29 23:46:00,73.2,62.3,29.74,SW,224,0.0,0.0,68,0.00,,,0.01,Meteorologica,2013-06-30 03:46:00,
2013-06-29 23:51:00,73.3,62.5,29.74,SW,224,0.0,0.0,68,0.00,,,0.01,Meteorologica,2013-06-30 03:51:00,
2013-06-29 23:56:00,73.3,62.3,29.74,SW,227,0.7,3.2,68,0.00,,,0.01,Meteorologica,2013-06-30 03:56:00,